Time;durP1;ratioP1;P1;durP2;ratioP2;P2;SDS_P1;SDS_P2;PMS_P1;PMS_P2;Temp;Humidity;BMP_temperature;BMP_pressure;BME280_temperature;BME280_humidity;BME280_pressure;Samples;Min_cycle;Max_cycle;Signal;HPM_P1;HPM_P2
2022/03/08 00:00:21;;;;;;;16.50;7.40;;;2.60;97.10;;;;;;5024067;28;20021;-90
2022/03/08 00:02:48;;;;;;;18.60;9.27;;;2.50;97.20;;;;;;5023915;28;20025;-91
2022/03/08 00:05:15;;;;;;;19.77;8.07;;;2.50;97.20;;;;;;5024958;28;20038;-90
2022/03/08 00:07:42;;;;;;;17.70;8.10;;;2.40;97.30;;;;;;5041278;28;20018;-91
2022/03/08 00:10:09;;;;;;;14.73;7.75;;;2.40;97.50;;;;;;5040233;28;20045;-90
2022/03/08 00:12:35;;;;;;;16.35;8.68;;;2.40;97.50;;;;;;5040592;28;20032;-87
2022/03/08 00:15:03;;;;;;;16.30;8.10;;;2.30;97.50;;;;;;5040393;28;20036;-87
2022/03/08 00:17:28;;;;;;;20.05;9.02;;;2.30;97.70;;;;;;5039361;28;20037;-86
2022/03/08 00:19:54;;;;;;;18.20;8.00;;;2.30;97.70;;;;;;5038200;28;20022;-87
2022/03/08 00:22:20;;;;;;;22.15;9.18;;;2.30;97.80;;;;;;5039031;28;20029;-90
2022/03/08 00:24:46;;;;;;;21.88;9.18;;;2.20;97.90;;;;;;5040576;28;20028;-86
2022/03/08 00:27:12;;;;;;;20.25;8.57;;;2.20;97.90;;;;;;5023185;28;20050;-87
2022/03/08 00:29:39;;;;;;;17.70;8.88;;;2.10;98.00;;;;;;5039682;28;20022;-90
2022/03/08 00:32:05;;;;;;;16.42;8.55;;;2.20;98.10;;;;;;5040234;28;20062;-89
2022/03/08 00:34:33;;;;;;;14.18;8.05;;;2.10;98.10;;;;;;5040260;28;20010;-90
2022/03/08 00:36:59;;;;;;;21.35;9.23;;;2.10;98.30;;;;;;5038834;28;20101;-88
2022/03/08 00:39:25;;;;;;;18.65;8.48;;;2.10;98.50;;;;;;5019256;28;20025;-86
2022/03/08 00:41:51;;;;;;;18.23;8.10;;;2.00;98.50;;;;;;5020223;28;20049;-86
2022/03/08 00:44:16;;;;;;;18.73;8.05;;;2.00;98.50;;;;;;5036018;28;20026;-87
2022/03/08 00:46:42;;;;;;;15.63;8.43;;;2.00;98.80;;;;;;5033341;28;20030;-87
2022/03/08 00:49:09;;;;;;;14.63;8.10;;;1.90;98.70;;;;;;5032306;28;20022;-88
2022/03/08 00:51:35;;;;;;;20.13;8.32;;;1.90;98.80;;;;;;5036856;28;20014;-87
2022/03/08 00:54:01;;;;;;;14.82;7.85;;;1.90;98.80;;;;;;5039682;28;20112;-90
2022/03/08 00:56:27;;;;;;;15.43;7.95;;;1.90;98.90;;;;;;5040050;28;20022;-86
2022/03/08 00:58:53;;;;;;;21.38;9.00;;;1.90;99.00;;;;;;5038726;28;20045;-91
2022/03/08 01:01:19;;;;;;;18.52;8.38;;;1.80;99.10;;;;;;5039367;28;20049;-91
2022/03/08 01:03:46;;;;;;;17.67;8.27;;;1.80;99.20;;;;;;5022452;28;20042;-87
2022/03/08 01:06:12;;;;;;;21.33;8.85;;;1.80;99.20;;;;;;5039996;28;20026;-87
2022/03/08 01:08:38;;;;;;;21.52;9.07;;;1.80;99.30;;;;;;5037691;28;20044;-87
2022/03/08 01:11:04;;;;;;;19.27;8.48;;;1.80;99.40;;;;;;5034967;28;20049;-85
2022/03/08 01:13:31;;;;;;;18.60;8.65;;;1.80;99.40;;;;;;5020636;28;20053;-84
2022/03/08 01:15:57;;;;;;;17.73;8.48;;;1.80;99.50;;;;;;5035241;28;20026;-85
2022/03/08 01:18:23;;;;;;;16.42;8.95;;;1.80;99.60;;;;;;5036782;28;20072;-87
2022/03/08 01:20:49;;;;;;;20.25;9.52;;;1.70;99.70;;;;;;5034022;28;20204;-86
2022/03/08 01:23:15;;;;;;;17.35;8.50;;;1.70;99.80;;;;;;5031656;28;20018;-85
2022/03/08 01:25:41;;;;;;;18.58;8.63;;;1.70;99.90;;;;;;5030821;28;20513;-84
2022/03/08 01:28:10;;;;;;;18.83;8.68;;;1.70;99.90;;;;;;5034840;28;20007;-87
2022/03/08 01:30:37;;;;;;;19.88;8.68;;;1.70;99.90;;;;;;5038178;28;20623;-90
2022/03/08 01:33:03;;;;;;;17.50;8.13;;;1.70;99.90;;;;;;5038046;28;20026;-87
2022/03/08 01:35:29;;;;;;;17.98;8.38;;;1.70;99.90;;;;;;5038613;28;20026;-88
2022/03/08 01:37:55;;;;;;;19.08;8.50;;;1.70;99.90;;;;;;5032076;28;20041;-87
2022/03/08 01:40:21;;;;;;;22.48;9.05;;;1.60;99.90;;;;;;5037983;28;20090;-89
2022/03/08 01:42:50;;;;;;;18.33;8.63;;;1.60;99.90;;;;;;5038478;28;20021;-91
2022/03/08 01:45:19;;;;;;;21.38;8.38;;;1.50;99.90;;;;;;5038331;28;20086;-87
2022/03/08 01:47:45;;;;;;;20.05;8.85;;;1.50;99.90;;;;;;5021161;28;20033;-88
2022/03/08 01:50:13;;;;;;;17.35;8.82;;;1.50;99.90;;;;;;5021060;28;20025;-87
2022/03/08 01:52:40;;;;;;;19.90;8.63;;;1.50;99.90;;;;;;5038495;28;20069;-85
2022/03/08 01:55:08;;;;;;;18.42;9.10;;;1.50;99.90;;;;;;5032942;28;20030;-86
2022/03/08 01:57:34;;;;;;;19.05;8.90;;;1.50;99.90;;;;;;5035572;28;20026;-89
2022/03/08 02:00:00;;;;;;;17.40;8.38;;;1.50;99.90;;;;;;5030899;28;20040;-86
2022/03/08 02:02:26;;;;;;;20.98;9.50;;;1.50;99.90;;;;;;5014067;28;20042;-86
2022/03/08 02:04:52;;;;;;;19.80;9.07;;;1.50;99.90;;;;;;5036503;28;20045;-90
2022/03/08 02:07:19;;;;;;;19.15;9.15;;;1.50;99.90;;;;;;5037455;28;20470;-87
2022/03/08 02:09:44;;;;;;;17.70;8.88;;;1.50;99.90;;;;;;5034381;28;20038;-88
2022/03/08 02:12:11;;;;;;;17.90;9.55;;;1.50;99.90;;;;;;5037552;28;20026;-89
2022/03/08 02:14:37;;;;;;;17.00;8.40;;;1.50;99.90;;;;;;5037641;28;20020;-86
2022/03/08 02:17:05;;;;;;;19.58;8.55;;;1.50;99.90;;;;;;5036840;28;20087;-87
2022/03/08 02:19:31;;;;;;;18.08;9.90;;;1.50;99.90;;;;;;5036416;28;20036;-87
2022/03/08 02:21:56;;;;;;;20.63;9.13;;;1.40;99.90;;;;;;5037377;28;20030;-86
2022/03/08 02:24:23;;;;;;;21.05;9.02;;;1.40;99.90;;;;;;5036350;28;20061;-88
2022/03/08 02:26:50;;;;;;;19.23;8.48;;;1.40;99.90;;;;;;5034382;28;20030;-86
2022/03/08 02:29:15;;;;;;;19.55;8.85;;;1.40;99.90;;;;;;5036337;28;20033;-87
2022/03/08 02:31:41;;;;;;;16.48;8.98;;;1.40;99.90;;;;;;5036997;28;20145;-90
2022/03/08 02:34:07;;;;;;;22.25;8.90;;;1.50;99.90;;;;;;5035513;28;20034;-85
2022/03/08 02:36:33;;;;;;;18.45;9.15;;;1.50;99.90;;;;;;5029970;28;20022;-87
2022/03/08 02:38:59;;;;;;;17.83;9.05;;;1.50;99.90;;;;;;5035409;28;20018;-88
2022/03/08 02:41:25;;;;;;;19.98;9.27;;;1.50;99.90;;;;;;5018785;28;20006;-85
2022/03/08 02:43:51;;;;;;;24.17;9.73;;;1.50;99.90;;;;;;5038007;28;20018;-89
2022/03/08 02:46:17;;;;;;;25.55;9.35;;;1.60;99.90;;;;;;5021119;28;20021;-89
2022/03/08 02:48:43;;;;;;;23.20;9.70;;;1.60;99.90;;;;;;5020850;28;20014;-87
2022/03/08 02:51:09;;;;;;;14.95;8.82;;;1.60;99.90;;;;;;5037050;28;20022;-89
2022/03/08 02:53:34;;;;;;;23.08;10.10;;;1.60;99.90;;;;;;5035524;28;20062;-86
2022/03/08 02:56:00;;;;;;;15.82;9.15;;;1.70;99.90;;;;;;5021533;28;20025;-90
2022/03/08 02:58:26;;;;;;;19.60;9.43;;;1.70;99.90;;;;;;5037047;28;20014;-86
2022/03/08 03:00:52;;;;;;;21.83;8.75;;;1.70;99.90;;;;;;5017983;28;20030;-84
2022/03/08 03:03:18;;;;;;;20.58;9.98;;;1.70;99.90;;;;;;5035526;28;20053;-88
2022/03/08 03:05:44;;;;;;;20.77;9.10;;;1.70;99.90;;;;;;5036825;28;20064;-86
2022/03/08 03:08:10;;;;;;;25.35;10.63;;;1.80;99.90;;;;;;5037081;28;20022;-87
2022/03/08 03:10:36;;;;;;;25.23;10.73;;;1.90;99.90;;;;;;5034351;28;20030;-85
2022/03/08 03:13:03;;;;;;;22.48;10.13;;;2.00;99.90;;;;;;5041184;28;20038;-83
2022/03/08 03:15:30;;;;;;;19.45;9.90;;;2.10;99.80;;;;;;5041988;28;20089;-87
2022/03/08 03:17:56;;;;;;;19.75;9.77;;;2.10;99.70;;;;;;5040682;28;20041;-86
2022/03/08 03:20:23;;;;;;;27.27;10.13;;;2.20;99.30;;;;;;5019596;28;20032;-85
2022/03/08 03:22:49;;;;;;;18.60;9.88;;;2.20;99.00;;;;;;5035695;28;20034;-87
2022/03/08 03:25:16;;;;;;;21.27;9.80;;;2.30;98.90;;;;;;5036452;28;20029;-87
2022/03/08 03:27:43;;;;;;;24.83;10.20;;;2.30;98.80;;;;;;5018639;28;20045;-83
2022/03/08 03:30:12;;;;;;;23.45;11.25;;;2.30;98.60;;;;;;5021016;28;20026;-86
2022/03/08 03:32:39;;;;;;;25.30;10.65;;;2.30;98.60;;;;;;5040845;28;20021;-87
2022/03/08 03:35:06;;;;;;;28.83;11.25;;;2.30;98.40;;;;;;5041950;28;20154;-84
2022/03/08 03:37:33;;;;;;;35.60;16.27;;;2.30;98.30;;;;;;5040791;28;20026;-87
2022/03/08 03:39:58;;;;;;;28.02;12.43;;;2.40;98.30;;;;;;5041099;28;20045;-88
2022/03/08 03:42:24;;;;;;;28.23;12.25;;;2.40;98.30;;;;;;5040930;28;20030;-85
2022/03/08 03:44:50;;;;;;;20.38;10.85;;;2.40;98.30;;;;;;5040716;28;20045;-85
2022/03/08 03:47:16;;;;;;;24.42;11.60;;;2.40;98.10;;;;;;5041111;28;20045;-91
2022/03/08 03:49:42;;;;;;;24.38;10.77;;;2.40;98.10;;;;;;5039935;28;20496;-86
2022/03/08 03:52:07;;;;;;;22.90;11.35;;;2.40;98.00;;;;;;5020955;28;20041;-88
2022/03/08 03:54:33;;;;;;;23.63;11.48;;;2.40;98.00;;;;;;5041778;28;20037;-88
2022/03/08 03:56:59;;;;;;;22.70;11.45;;;2.40;97.90;;;;;;5041021;28;20026;-90
2022/03/08 03:59:25;;;;;;;28.13;11.18;;;2.40;97.90;;;;;;5036099;28;20033;-86
2022/03/08 04:01:50;;;;;;;20.50;10.63;;;2.30;97.90;;;;;;5033413;28;20029;-85
2022/03/08 04:04:16;;;;;;;23.77;10.82;;;2.30;97.90;;;;;;5040553;23;20025;-86
2022/03/08 04:06:43;;;;;;;27.17;12.02;;;2.20;98.00;;;;;;5040462;28;20029;-84
2022/03/08 04:09:08;;;;;;;25.02;13.02;;;2.10;97.90;;;;;;5023980;28;20041;-85
2022/03/08 04:11:34;;;;;;;33.35;15.52;;;2.10;97.90;;;;;;5023827;28;20042;-85
2022/03/08 04:14:00;;;;;;;36.17;16.08;;;2.10;98.00;;;;;;5023671;28;20030;-85
2022/03/08 04:16:26;;;;;;;29.13;13.18;;;2.00;98.20;;;;;;5040746;28;20026;-85
2022/03/08 04:18:51;;;;;;;24.92;11.93;;;2.00;98.30;;;;;;5022438;28;20014;-86
2022/03/08 04:21:17;;;;;;;24.00;12.07;;;1.90;98.30;;;;;;5040690;28;20030;-84
2022/03/08 04:23:43;;;;;;;24.27;11.63;;;1.90;98.50;;;;;;5040387;28;20038;-85
2022/03/08 04:26:09;;;;;;;25.48;11.35;;;1.80;98.60;;;;;;5041025;28;20022;-84
2022/03/08 04:28:35;;;;;;;24.55;11.55;;;1.80;98.70;;;;;;5040595;28;20032;-86
2022/03/08 04:31:01;;;;;;;21.80;11.30;;;1.80;98.80;;;;;;5007827;28;20053;-86
2022/03/08 04:33:26;;;;;;;23.60;10.70;;;1.70;98.80;;;;;;5006906;28;20025;-84
2022/03/08 04:35:52;;;;;;;36.35;16.35;;;1.70;98.90;;;;;;5040603;28;20018;-85
2022/03/08 04:38:18;;;;;;;30.55;13.00;;;1.70;99.00;;;;;;5039911;28;20037;-84
2022/03/08 04:40:44;;;;;;;28.25;13.38;;;1.70;99.10;;;;;;5040161;28;20022;-85
2022/03/08 04:43:10;;;;;;;28.08;12.80;;;1.70;99.30;;;;;;5022661;28;20041;-83
2022/03/08 04:45:36;;;;;;;31.70;12.18;;;1.60;99.30;;;;;;5038136;28;20037;-87
2022/03/08 04:48:02;;;;;;;21.90;11.75;;;1.60;99.40;;;;;;5018256;28;20022;-85
2022/03/08 04:50:28;;;;;;;25.65;10.80;;;1.60;99.40;;;;;;5022502;28;20085;-84
2022/03/08 04:52:53;;;;;;;28.90;12.25;;;1.60;99.40;;;;;;5031762;28;20402;-84
2022/03/08 04:55:20;;;;;;;33.95;11.07;;;1.50;99.50;;;;;;5030565;28;20116;-85
2022/03/08 04:57:47;;;;;;;23.58;10.43;;;1.50;99.50;;;;;;5025042;28;20029;-86
2022/03/08 05:00:15;;;;;;;24.05;9.88;;;1.50;99.70;;;;;;4991500;28;20029;-87
2022/03/08 05:02:43;;;;;;;25.40;11.20;;;1.50;99.70;;;;;;5028118;28;20017;-89
2022/03/08 05:05:10;;;;;;;25.10;10.80;;;1.50;99.80;;;;;;5026976;28;20041;-86
2022/03/08 05:07:36;;;;;;;25.63;11.93;;;1.50;99.90;;;;;;5028784;28;20026;-86
2022/03/08 05:10:08;;;;;;;23.35;11.15;;;1.50;99.90;;;;;;5011481;28;20044;-86
2022/03/08 05:12:35;;;;;;;22.13;11.07;;;1.50;99.90;;;;;;5033327;28;20030;-87
2022/03/08 05:15:02;;;;;;;20.83;10.90;;;1.50;99.90;;;;;;5000515;28;20041;-85
2022/03/08 05:17:28;;;;;;;20.45;10.65;;;1.40;99.90;;;;;;5022738;28;20125;-84
2022/03/08 05:19:53;;;;;;;28.15;13.98;;;1.40;99.90;;;;;;5039029;28;20021;-86
2022/03/08 05:22:22;;;;;;;28.23;12.70;;;1.40;99.90;;;;;;5039008;28;20046;-84
2022/03/08 05:24:48;;;;;;;35.50;17.17;;;1.40;99.90;;;;;;5039589;28;20074;-84
2022/03/08 05:27:17;;;;;;;28.73;13.30;;;1.40;99.90;;;;;;5039143;28;20042;-86
2022/03/08 05:29:43;;;;;;;24.65;11.00;;;1.30;99.90;;;;;;5036450;28;20041;-85
2022/03/08 05:32:09;;;;;;;24.85;11.63;;;1.30;99.90;;;;;;5021866;28;20033;-85
2022/03/08 05:34:35;;;;;;;25.17;11.35;;;1.30;99.90;;;;;;5038027;28;20010;-86
2022/03/08 05:37:04;;;;;;;25.35;11.23;;;1.30;99.90;;;;;;5018886;28;20041;-88
2022/03/08 05:39:30;;;;;;;31.13;11.00;;;1.30;99.90;;;;;;5029046;28;20026;-86
2022/03/08 05:41:56;;;;;;;21.27;11.38;;;1.30;99.90;;;;;;5014434;28;20037;-88
2022/03/08 05:44:21;;;;;;;29.02;10.57;;;1.30;99.90;;;;;;5020539;28;20056;-87
2022/03/08 05:46:47;;;;;;;28.95;12.23;;;1.40;99.90;;;;;;5038766;28;20022;-86
2022/03/08 05:49:13;;;;;;;24.65;11.50;;;1.40;99.90;;;;;;5022059;28;20029;-86
2022/03/08 05:51:39;;;;;;;28.17;12.02;;;1.40;99.80;;;;;;5021395;28;20058;-86
2022/03/08 05:54:04;;;;;;;25.60;11.43;;;1.40;99.80;;;;;;5005254;28;20022;-85
2022/03/08 05:56:30;;;;;;;25.23;11.65;;;1.40;99.80;;;;;;5022040;28;20037;-86
2022/03/08 05:58:56;;;;;;;25.90;12.00;;;1.40;99.90;;;;;;5022289;28;20029;-84
2022/03/08 06:01:22;;;;;;;28.48;11.20;;;1.50;99.80;;;;;;5038987;28;20305;-85
2022/03/08 06:03:50;;;;;;;24.42;11.82;;;1.60;99.60;;;;;;5021948;28;20061;-84
2022/03/08 06:06:16;;;;;;;26.98;11.13;;;1.60;99.60;;;;;;5038502;28;20014;-85
2022/03/08 06:08:42;;;;;;;32.15;12.10;;;1.60;99.50;;;;;;5037566;28;20057;-87
2022/03/08 06:11:08;;;;;;;27.67;11.55;;;1.70;99.70;;;;;;5037977;28;20045;-83
2022/03/08 06:13:33;;;;;;;19.38;10.90;;;1.70;99.40;;;;;;5038681;28;20010;-85
2022/03/08 06:16:03;;;;;;;27.23;11.60;;;1.80;99.30;;;;;;5039046;28;20021;-84
2022/03/08 06:18:29;;;;;;;32.85;11.07;;;1.80;99.10;;;;;;5038988;28;20017;-84
2022/03/08 06:20:54;;;;;;;28.38;11.43;;;1.90;99.00;;;;;;5020663;28;20026;-87
2022/03/08 06:23:20;;;;;;;29.00;11.45;;;2.00;98.90;;;;;;5037798;28;20021;-85
2022/03/08 06:25:46;;;;;;;23.83;10.98;;;2.10;98.60;;;;;;5020949;28;20037;-85
2022/03/08 06:28:12;;;;;;;28.23;11.50;;;2.10;98.30;;;;;;5037267;28;20083;-86
2022/03/08 06:30:37;;;;;;;23.42;11.57;;;2.20;98.10;;;;;;5037697;28;20050;-88
2022/03/08 06:33:04;;;;;;;26.50;10.88;;;2.20;98.10;;;;;;5037477;28;20034;-86
2022/03/08 06:35:31;;;;;;;30.77;13.57;;;2.30;98.00;;;;;;5038026;28;20050;-85
2022/03/08 06:37:57;;;;;;;29.98;13.70;;;2.30;98.00;;;;;;5021430;28;20048;-86
2022/03/08 06:40:24;;;;;;;25.83;10.63;;;2.30;98.00;;;;;;5021241;28;20042;-86
2022/03/08 06:42:50;;;;;;;26.80;11.20;;;2.40;98.10;;;;;;5020203;28;20029;-88
2022/03/08 06:45:16;;;;;;;26.00;11.52;;;2.50;98.00;;;;;;5037373;28;20085;-87
2022/03/08 06:47:41;;;;;;;31.85;10.95;;;2.60;97.80;;;;;;5018771;28;20026;-88
2022/03/08 06:50:08;;;;;;;26.05;10.82;;;2.70;97.70;;;;;;5038809;28;20090;-88
2022/03/08 06:52:34;;;;;;;26.27;11.68;;;2.80;97.60;;;;;;5039304;28;20077;-86
2022/03/08 06:55:03;;;;;;;23.75;12.13;;;2.90;97.50;;;;;;5019463;28;20033;-86
2022/03/08 06:57:30;;;;;;;24.45;10.25;;;3.00;97.40;;;;;;5036546;28;20018;-87
2022/03/08 06:59:56;;;;;;;23.80;10.10;;;3.10;97.00;;;;;;5038773;28;20034;-89
2022/03/08 07:02:22;;;;;;;24.52;10.77;;;3.20;97.00;;;;;;5040044;28;20026;-87
2022/03/08 07:04:47;;;;;;;24.33;11.05;;;3.30;96.90;;;;;;5024479;28;20018;-85
2022/03/08 07:07:13;;;;;;;19.20;10.05;;;3.40;96.80;;;;;;5041380;28;20088;-86
2022/03/08 07:09:39;;;;;;;22.63;11.05;;;3.50;96.70;;;;;;5041484;28;20026;-85
2022/03/08 07:12:06;;;;;;;22.90;10.05;;;3.60;96.40;;;;;;5024321;28;20049;-86
2022/03/08 07:14:32;;;;;;;20.77;9.85;;;3.80;96.40;;;;;;5040875;28;20056;-85
2022/03/08 07:16:57;;;;;;;25.77;10.27;;;3.90;96.00;;;;;;5041065;28;20025;-87
2022/03/08 07:19:26;;;;;;;24.42;10.65;;;4.00;95.80;;;;;;5023553;28;20029;-84
2022/03/08 07:21:52;;;;;;;24.10;10.45;;;4.10;96.00;;;;;;5022422;28;20028;-86
2022/03/08 07:24:18;;;;;;;25.88;10.00;;;4.20;95.40;;;;;;5019449;28;20034;-87
2022/03/08 07:26:43;;;;;;;22.67;9.98;;;4.30;95.40;;;;;;5020872;28;20022;-86
2022/03/08 07:29:09;;;;;;;20.17;8.95;;;4.40;95.40;;;;;;5023482;28;20026;-87
2022/03/08 07:31:35;;;;;;;18.85;9.50;;;4.50;95.30;;;;;;5020082;28;20033;-86
2022/03/08 07:34:02;;;;;;;22.92;10.05;;;4.50;95.00;;;;;;5034715;28;20029;-85
2022/03/08 07:36:28;;;;;;;23.85;10.57;;;4.50;95.00;;;;;;5036666;28;20056;-86
2022/03/08 07:38:53;;;;;;;25.60;10.25;;;4.60;95.10;;;;;;5021102;28;20014;-85
2022/03/08 07:41:19;;;;;;;37.58;13.38;;;4.70;94.80;;;;;;5038383;28;20017;-85
2022/03/08 07:43:45;;;;;;;17.52;9.05;;;4.70;94.60;;;;;;5022102;28;20025;-85
2022/03/08 07:46:11;;;;;;;20.15;10.15;;;4.70;94.50;;;;;;5039559;28;20030;-85
2022/03/08 07:48:37;;;;;;;24.92;10.52;;;4.70;94.40;;;;;;5039452;28;20054;-87
2022/03/08 07:51:06;;;;;;;21.65;10.13;;;4.70;94.60;;;;;;5002611;28;20040;-85
2022/03/08 07:53:31;;;;;;;19.73;9.57;;;4.80;94.60;;;;;;5035286;28;20022;-85
2022/03/08 07:55:57;;;;;;;22.58;9.40;;;4.80;94.40;;;;;;5037898;28;20089;-85
2022/03/08 07:58:23;;;;;;;21.58;9.90;;;4.90;94.50;;;;;;5038270;28;20022;-86
2022/03/08 08:00:49;;;;;;;22.58;9.70;;;4.90;94.20;;;;;;5022600;28;20022;-84
2022/03/08 08:03:15;;;;;;;18.58;9.07;;;5.00;94.20;;;;;;5022152;28;20018;-84
2022/03/08 08:05:41;;;;;;;24.05;9.30;;;5.10;93.90;;;;;;5023014;28;20026;-85
2022/03/08 08:08:07;;;;;;;17.83;9.13;;;5.10;93.90;;;;;;5040029;28;20032;-86
2022/03/08 08:10:34;;;;;;;22.95;9.40;;;5.10;93.80;;;;;;5022650;28;20022;-86
2022/03/08 08:13:00;;;;;;;22.13;9.90;;;5.10;94.00;;;;;;5022549;28;20033;-86
2022/03/08 08:15:26;;;;;;;23.50;10.10;;;5.10;93.90;;;;;;5039850;28;20075;-86
2022/03/08 08:17:52;;;;;;;20.70;9.32;;;5.00;93.90;;;;;;5039891;28;20018;-84
2022/03/08 08:20:18;;;;;;;26.45;10.35;;;5.00;93.90;;;;;;5022663;28;20014;-86
2022/03/08 08:22:46;;;;;;;18.70;9.25;;;5.00;93.70;;;;;;5039245;28;20022;-85
2022/03/08 08:25:12;;;;;;;22.02;10.23;;;5.00;94.00;;;;;;5022725;28;20014;-85
2022/03/08 08:27:38;;;;;;;21.90;9.65;;;5.00;94.00;;;;;;5022544;28;20018;-86
2022/03/08 08:30:10;;;;;;;18.77;9.85;;;5.10;94.10;;;;;;5022026;28;20022;-87
2022/03/08 08:32:36;;;;;;;27.13;10.50;;;5.20;93.60;;;;;;5022074;28;20076;-88
2022/03/08 08:35:03;;;;;;;19.35;10.25;;;5.30;93.60;;;;;;5038445;28;20049;-86
2022/03/08 08:37:31;;;;;;;24.52;11.10;;;5.40;93.30;;;;;;5038770;28;20041;-87
2022/03/08 08:39:57;;;;;;;20.13;9.77;;;5.40;93.50;;;;;;5037400;28;20033;-88
2022/03/08 08:42:23;;;;;;;22.15;10.25;;;5.40;93.30;;;;;;5027104;28;20037;-89
2022/03/08 08:44:49;;;;;;;25.85;10.57;;;5.50;93.20;;;;;;5025215;28;20486;-89
2022/03/08 08:47:15;;;;;;;28.08;11.10;;;5.50;93.40;;;;;;5006920;28;20038;-88
2022/03/08 08:49:41;;;;;;;23.55;10.50;;;5.50;93.60;;;;;;5023766;28;20027;-87
2022/03/08 08:52:07;;;;;;;21.67;10.10;;;5.50;93.30;;;;;;5024553;28;20073;-88
2022/03/08 08:54:33;;;;;;;21.10;10.30;;;5.60;93.00;;;;;;5024618;28;20109;-88
2022/03/08 08:56:58;;;;;;;23.33;9.93;;;5.50;93.20;;;;;;5007484;28;20050;-89
2022/03/08 08:59:24;;;;;;;23.25;10.00;;;5.50;93.40;;;;;;5032767;28;20026;-84
2022/03/08 09:01:50;;;;;;;21.05;9.85;;;5.70;93.20;;;;;;5038711;28;20070;-85
2022/03/08 09:04:16;;;;;;;22.30;9.88;;;6.00;92.70;;;;;;5006016;28;20029;-84
2022/03/08 09:06:42;;;;;;;18.73;9.40;;;6.50;92.30;;;;;;5022301;28;20041;-84
2022/03/08 09:09:08;;;;;;;20.73;10.70;;;7.10;91.60;;;;;;5015518;28;20044;-84
2022/03/08 09:11:33;;;;;;;22.77;9.98;;;7.60;90.80;;;;;;5018175;28;20107;-86
2022/03/08 09:13:59;;;;;;;22.48;9.80;;;8.50;89.50;;;;;;5012896;28;20041;-86
2022/03/08 09:16:26;;;;;;;24.80;10.15;;;9.40;87.20;;;;;;5029589;28;20025;-88
2022/03/08 09:18:54;;;;;;;20.42;10.15;;;10.60;84.10;;;;;;5037794;28;20014;-85
2022/03/08 09:21:20;;;;;;;21.33;10.63;;;11.40;80.60;;;;;;5039273;28;20021;-84
2022/03/08 09:23:47;;;;;;;21.33;10.25;;;12.20;78.40;;;;;;5039354;28;20065;-84
2022/03/08 09:26:14;;;;;;;17.73;10.10;;;13.00;75.90;;;;;;5021935;28;20033;-86
2022/03/08 09:28:42;;;;;;;15.85;10.07;;;14.10;73.10;;;;;;5006105;28;20037;-87
2022/03/08 09:31:08;;;;;;;18.50;9.98;;;15.00;70.90;;;;;;5033425;28;20090;-87
2022/03/08 09:33:34;;;;;;;20.42;10.00;;;15.70;68.10;;;;;;5031611;28;20025;-87
2022/03/08 09:36:02;;;;;;;16.83;9.02;;;16.70;65.20;;;;;;5031421;28;20486;-87
2022/03/08 09:38:28;;;;;;;23.10;10.82;;;17.00;63.30;;;;;;5015036;28;20061;-88
2022/03/08 09:40:54;;;;;;;17.00;9.43;;;17.50;62.50;;;;;;5032974;28;20018;-85
2022/03/08 09:43:20;;;;;;;17.73;9.82;;;18.30;60.60;;;;;;5035762;28;20022;-85
2022/03/08 09:45:48;;;;;;;17.52;9.70;;;19.30;58.30;;;;;;5036584;28;20041;-86
2022/03/08 09:48:16;;;;;;;20.08;10.05;;;20.00;56.40;;;;;;5035156;28;20077;-88
2022/03/08 09:50:42;;;;;;;14.50;9.23;;;20.20;54.70;;;;;;5035696;28;20080;-89
2022/03/08 09:53:11;;;;;;;18.67;10.13;;;20.90;53.70;;;;;;5033110;28;20026;-87
2022/03/08 09:55:36;;;;;;;18.40;9.75;;;20.70;53.00;;;;;;5033402;28;20044;-89
2022/03/08 09:58:02;;;;;;;17.80;9.70;;;20.70;52.80;;;;;;5014797;28;20026;-88
2022/03/08 10:00:30;;;;;;;17.50;9.77;;;20.80;52.50;;;;;;5034868;28;20021;-87
2022/03/08 10:02:58;;;;;;;16.95;9.38;;;21.60;51.50;;;;;;5021776;28;20030;-86
2022/03/08 10:05:42;;;;;;;19.58;9.82;;;21.30;51.00;;;;;;5047934;23;20034;-83
2022/03/08 10:08:21;;;;;;;16.25;8.55;;;21.30;50.90;;;;;;5009469;28;20079;-82
2022/03/08 10:10:58;;;;;;;13.55;7.93;;;21.30;50.80;;;;;;5010764;28;20124;-82
2022/03/08 10:13:29;;;;;;;14.15;8.35;;;22.00;50.20;;;;;;5011454;28;20076;-82
2022/03/08 10:16:22;;;;;;;14.57;8.40;;;22.10;49.80;;;;;;5016759;28;20059;-81
2022/03/08 10:18:52;;;;;;;15.77;8.68;;;22.70;48.70;;;;;;4994696;28;20094;-82
2022/03/08 10:21:35;;;;;;;14.35;8.05;;;23.00;48.20;;;;;;5025942;28;20097;-82
2022/03/08 10:24:04;;;;;;;16.08;8.82;;;22.70;47.80;;;;;;4989727;28;20034;-81
2022/03/08 10:26:46;;;;;;;14.30;7.32;;;23.60;47.50;;;;;;5021176;28;20036;-81
2022/03/08 10:29:12;;;;;;;23.50;8.18;;;23.90;46.40;;;;;;5023236;28;20041;-81
2022/03/08 10:31:39;;;;;;;14.02;7.03;;;23.40;46.50;;;;;;5022169;28;20025;-82
2022/03/08 10:34:08;;;;;;;15.63;7.78;;;22.80;46.60;;;;;;5023380;28;20042;-81
2022/03/08 10:36:37;;;;;;;12.50;7.18;;;22.30;46.90;;;;;;5028174;28;20022;-83
2022/03/08 10:39:16;;;;;;;11.85;7.03;;;21.70;47.00;;;;;;5008846;28;20030;-82
2022/03/08 10:41:48;;;;;;;13.15;7.55;;;21.20;47.70;;;;;;5010304;28;20033;-83
2022/03/08 10:44:14;;;;;;;15.05;7.55;;;20.50;47.80;;;;;;5023648;28;20029;-80
2022/03/08 10:46:40;;;;;;;10.75;6.97;;;18.80;49.40;;;;;;5004245;28;20026;-82
2022/03/08 10:49:13;;;;;;;15.70;7.35;;;19.10;50.10;;;;;;5005037;28;20109;-82
2022/03/08 10:51:41;;;;;;;12.60;8.10;;;20.50;49.10;;;;;;5020970;28;20042;-82
2022/03/08 10:54:14;;;;;;;15.43;7.70;;;21.80;47.60;;;;;;5022036;28;20042;-82
2022/03/08 10:56:45;;;;;;;16.35;7.53;;;21.90;47.30;;;;;;5009220;28;20030;-80
2022/03/08 10:59:12;;;;;;;12.85;6.97;;;22.80;46.40;;;;;;5009690;28;20072;-81
2022/03/08 11:01:38;;;;;;;13.48;7.32;;;23.60;45.40;;;;;;5003554;28;20458;-80
2022/03/08 11:04:15;;;;;;;12.57;7.40;;;23.30;45.30;;;;;;5021338;28;20046;-81
2022/03/08 11:06:42;;;;;;;23.83;7.30;;;23.30;45.20;;;;;;5021635;28;20029;-81
2022/03/08 11:09:08;;;;;;;16.00;7.78;;;23.40;45.30;;;;;;5021896;28;20038;-84
2022/03/08 11:11:36;;;;;;;11.80;6.90;;;24.20;44.40;;;;;;5020138;28;20100;-80
2022/03/08 11:14:02;;;;;;;14.43;7.82;;;23.40;44.60;;;;;;5021619;28;20025;-83
2022/03/08 11:16:31;;;;;;;12.18;7.60;;;22.40;45.60;;;;;;5021745;28;20022;-82
2022/03/08 11:18:57;;;;;;;19.65;7.72;;;22.40;45.70;;;;;;5032263;28;20017;-80
2022/03/08 11:21:24;;;;;;;13.40;7.30;;;21.10;46.20;;;;;;5032006;28;20086;-82
2022/03/08 11:23:52;;;;;;;12.90;7.28;;;19.20;47.90;;;;;;5031899;28;20022;-81
2022/03/08 11:26:18;;;;;;;15.75;7.50;;;17.80;50.00;;;;;;5025637;28;20387;-81
2022/03/08 11:28:46;;;;;;;13.63;7.38;;;16.90;51.30;;;;;;5033005;28;20053;-82
2022/03/08 11:31:15;;;;;;;13.70;7.00;;;15.70;52.60;;;;;;5020761;28;20056;-79
2022/03/08 11:33:51;;;;;;;12.32;5.70;;;15.00;53.50;;;;;;4990888;28;20018;-83
2022/03/08 11:36:20;;;;;;;8.63;5.32;;;14.30;53.30;;;;;;5025302;28;20379;-83
2022/03/08 11:39:19;;;;;;;11.32;5.47;;;14.50;53.10;;;;;;5031229;28;20013;-82
2022/03/08 11:41:50;;;;;;;10.93;5.85;;;16.50;50.30;;;;;;5026227;28;20041;-82
2022/03/08 11:44:29;;;;;;;7.93;5.10;;;18.20;48.10;;;;;;5030516;28;20172;-80
2022/03/08 11:47:14;;;;;;;7.97;4.70;;;18.20;47.80;;;;;;5032181;28;20097;-82
2022/03/08 11:49:55;;;;;;;12.35;5.40;;;17.50;48.80;;;;;;5033774;28;20390;-82
2022/03/08 11:52:30;;;;;;;13.10;5.45;;;17.30;49.30;;;;;;5030638;28;20036;-82
2022/03/08 11:55:12;;;;;;;11.55;4.70;;;16.90;48.30;;;;;;5011950;28;20029;-85
2022/03/08 11:57:44;;;;;;;7.38;4.60;;;15.90;48.70;;;;;;5026381;28;20056;-82
2022/03/08 12:00:20;;;;;;;11.50;5.40;;;14.80;50.10;;;;;;5008010;28;20104;-83
2022/03/08 12:02:47;;;;;;;9.00;4.63;;;14.40;51.60;;;;;;5009615;28;20053;-82
2022/03/08 12:05:38;;;;;;;11.05;5.32;;;15.80;50.40;;;;;;5024245;28;20041;-81
2022/03/08 12:08:26;;;;;;;10.82;5.53;;;17.10;49.00;;;;;;5023783;28;20081;-82
2022/03/08 12:11:04;;;;;;;8.73;4.88;;;18.50;47.50;;;;;;5013287;28;20042;-82
2022/03/08 12:13:32;;;;;;;9.52;5.20;;;20.40;46.30;;;;;;5032552;28;20033;-82
2022/03/08 12:16:10;;;;;;;9.65;5.13;;;20.50;44.50;;;;;;5029378;28;20033;-83
2022/03/08 12:18:38;;;;;;;10.23;5.20;;;19.40;45.30;;;;;;5026709;28;20034;-83
2022/03/08 12:21:16;;;;;;;11.77;5.88;;;19.60;45.90;;;;;;5034596;28;20045;-84
2022/03/08 12:23:52;;;;;;;12.15;6.90;;;20.40;45.00;;;;;;5024880;28;20034;-82
2022/03/08 12:26:25;;;;;;;11.50;5.57;;;21.20;44.90;;;;;;5024270;28;20045;-83
2022/03/08 12:29:11;;;;;;;11.73;6.05;;;21.20;44.70;;;;;;4990443;28;20034;-83
2022/03/08 12:31:55;;;;;;;18.40;9.73;;;21.00;44.60;;;;;;5025838;28;20034;-82
2022/03/08 12:34:40;;;;;;;13.40;6.67;;;19.20;46.00;;;;;;5026505;28;20030;-81
2022/03/08 12:37:29;;;;;;;13.18;5.95;;;17.50;47.90;;;;;;5008817;28;20058;-83
2022/03/08 12:40:16;;;;;;;11.13;6.65;;;16.40;49.20;;;;;;5026342;28;20033;-84
2022/03/08 12:42:55;;;;;;;12.77;6.78;;;15.60;49.90;;;;;;5033378;28;20021;-82